RJTA(METAR)
02/28 07:00
METAR RJTA 272200Z 35011KT 9999 FEW020 SCT035 04/M04 Q1026 RMK
1CU020 4SC035 A3032=
戻る
トップページへ戻る
IMOC Co,.Ltd.